< < Back
Terminal Aerodrome Forecast


Current Version              Previous Versions:   1  2  3  4  5  6  7  8  9  

Terminal Aerodrome Forecast

147
FTUS42 KCHS 311100
TAFCHS
TAF
KCHS 311129Z 3112/0112 10009KT P6SM VCSH SCT035 BKN100
     FM010100 09005KT P6SM SCT025
     FM010600 08003KT P6SM VCSH SCT020 BKN040=

Latest METAR

582
SAUS80 KWBC 311300 RRA
MTRCHS
METAR KCHS 311256Z 07007KT 10SM FEW035 BKN120 BKN250 28/22 A3003 RMK AO2
SLP168 T02830222 $


USA.gov is the U.S. government's official web portal to all federal, state and local government web resources and services.